createdAt,value
2022-08-30T00:00:16.716Z,94440.19
2022-08-30T00:02:43.761Z,94446.97
2022-08-30T00:05:11.136Z,94452.84
2022-08-30T00:07:38.055Z,94445.47
2022-08-30T00:10:05.650Z,94440.91
2022-08-30T00:12:32.848Z,94444.47
2022-08-30T00:14:59.771Z,94455.00
2022-08-30T00:17:26.722Z,94444.34
2022-08-30T00:19:55.986Z,94448.19
2022-08-30T00:22:22.804Z,94440.50
2022-08-30T00:24:49.735Z,94448.47
2022-08-30T00:27:16.995Z,94450.88
2022-08-30T00:29:43.785Z,94450.56
2022-08-30T00:32:11.363Z,94443.75
2022-08-30T00:34:38.172Z,94446.28
2022-08-30T00:37:04.935Z,94442.00
2022-08-30T00:39:31.763Z,94445.97
2022-08-30T00:41:58.507Z,94445.88
2022-08-30T00:44:25.370Z,94448.03
2022-08-30T00:46:52.096Z,94439.63
2022-08-30T00:49:18.936Z,94433.28
2022-08-30T00:51:46.183Z,94439.00
2022-08-30T00:54:13.181Z,94441.19
2022-08-30T00:56:40.027Z,94442.38
2022-08-30T00:59:08.377Z,94430.09
2022-08-30T01:01:37.757Z,94433.25
2022-08-30T01:04:06.286Z,94440.41
2022-08-30T01:06:34.184Z,94437.00
2022-08-30T01:09:02.075Z,94434.53
2022-08-30T01:11:29.399Z,94431.72
2022-08-30T01:13:56.679Z,94432.28
2022-08-30T01:16:25.573Z,94431.72
2022-08-30T01:18:57.326Z,94433.69
2022-08-30T01:21:40.388Z,94430.59
2022-08-30T01:24:07.742Z,94421.41
2022-08-30T01:26:35.163Z,94421.19
2022-08-30T01:29:08.257Z,94421.47
2022-08-30T01:31:37.115Z,94423.13
2022-08-30T01:34:08.064Z,94418.38
2022-08-30T01:36:37.798Z,94424.00
2022-08-30T01:39:13.236Z,94419.31
2022-08-30T01:41:40.144Z,94418.41
2022-08-30T01:44:10.429Z,94422.59
2022-08-30T01:46:45.827Z,94422.28
2022-08-30T01:49:15.937Z,94418.22
2022-08-30T01:51:42.886Z,94421.78
2022-08-30T01:54:10.415Z,94426.53
2022-08-30T01:56:37.684Z,94427.97
2022-08-30T01:59:04.915Z,94429.41
2022-08-30T02:01:33.719Z,94421.47
2022-08-30T02:04:00.574Z,94430.00
2022-08-30T02:06:27.587Z,94433.66
2022-08-30T02:08:54.537Z,94421.47
2022-08-30T02:11:21.476Z,94429.88
2022-08-30T02:13:48.327Z,94426.72
2022-08-30T02:16:17.951Z,94424.41
2022-08-30T02:18:45.399Z,94435.59
2022-08-30T02:21:12.948Z,94427.59
2022-08-30T02:23:39.998Z,94426.88
2022-08-30T02:26:06.924Z,94429.47
2022-08-30T02:28:33.688Z,94419.53
2022-08-30T02:31:01.269Z,94412.75
2022-08-30T02:33:28.246Z,94421.91
2022-08-30T02:35:56.236Z,94419.59
2022-08-30T02:38:23.918Z,94409.00
2022-08-30T02:40:51.490Z,94412.53
2022-08-30T02:43:19.916Z,94419.34
2022-08-30T02:45:46.859Z,94412.06
2022-08-30T02:48:14.057Z,94406.72
2022-08-30T02:50:45.735Z,94425.81
2022-08-30T02:53:14.438Z,94423.28
2022-08-30T02:55:43.485Z,94416.00
2022-08-30T02:58:10.786Z,94415.53
2022-08-30T03:00:37.956Z,94417.34
2022-08-30T03:03:05.044Z,94419.25
2022-08-30T03:05:33.587Z,94419.25
2022-08-30T03:08:00.777Z,94414.09
2022-08-30T03:10:28.936Z,94417.75
2022-08-30T03:12:56.357Z,94423.13
2022-08-30T03:15:26.748Z,94419.50
2022-08-30T03:17:55.038Z,94417.09
2022-08-30T03:20:22.249Z,94413.22
2022-08-30T03:22:49.095Z,94406.50
2022-08-30T03:25:16.693Z,94408.38
2022-08-30T03:27:43.539Z,94409.81
2022-08-30T03:30:10.967Z,94410.94
2022-08-30T03:32:37.857Z,94408.09
2022-08-30T03:35:05.616Z,94407.91
2022-08-30T03:37:32.656Z,94396.66
2022-08-30T03:39:59.515Z,94409.34
2022-08-30T03:42:26.397Z,94405.38
2022-08-30T03:44:54.417Z,94412.84
2022-08-30T03:47:21.285Z,94401.81
2022-08-30T03:49:48.077Z,94404.25
2022-08-30T03:52:14.906Z,94385.72
2022-08-30T03:54:43.097Z,94406.03
2022-08-30T03:57:13.360Z,94396.81
2022-08-30T03:59:46.990Z,94404.75
2022-08-30T04:02:13.910Z,94407.66
2022-08-30T04:04:40.709Z,94407.50
2022-08-30T04:07:07.536Z,94403.31
2022-08-30T04:09:34.316Z,94414.25
2022-08-30T04:12:01.107Z,94414.72
2022-08-30T04:14:27.846Z,94422.19
2022-08-30T04:16:54.594Z,94418.22
2022-08-30T04:19:21.344Z,94423.31
2022-08-30T04:21:48.017Z,94420.59
2022-08-30T04:24:14.755Z,94424.56
2022-08-30T04:26:41.434Z,94417.88
2022-08-30T04:29:08.140Z,94430.97
2022-08-30T04:31:34.884Z,94432.78
2022-08-30T04:34:01.522Z,94433.75
2022-08-30T04:36:28.291Z,94422.41
2022-08-30T04:38:55.198Z,94434.78
2022-08-30T04:41:24.712Z,94436.63
2022-08-30T04:43:51.426Z,94432.97
2022-08-30T04:46:19.438Z,94433.44
2022-08-30T04:48:46.686Z,94439.25
2022-08-30T04:51:15.764Z,94446.75
2022-08-30T04:53:43.203Z,94437.25
2022-08-30T04:56:16.526Z,94444.69
2022-08-30T04:58:47.542Z,94452.88
2022-08-30T05:01:18.801Z,94459.94
2022-08-30T05:03:47.825Z,94457.78
2022-08-30T05:06:15.298Z,94460.88
2022-08-30T05:08:46.243Z,94460.88
2022-08-30T05:11:14.896Z,94451.75
2022-08-30T05:13:41.538Z,94461.81
2022-08-30T05:16:08.873Z,94467.06
2022-08-30T05:18:36.805Z,94469.59
2022-08-30T05:21:12.755Z,94475.63
2022-08-30T05:23:40.126Z,94475.97
2022-08-30T05:26:10.012Z,94480.41
2022-08-30T05:28:37.252Z,94483.97
2022-08-30T05:31:13.902Z,94483.47
2022-08-30T05:33:41.372Z,94487.69
2022-08-30T05:36:08.910Z,94487.84
2022-08-30T05:38:35.726Z,94488.81
2022-08-30T05:41:07.829Z,94490.44
2022-08-30T05:43:38.328Z,94489.56
2022-08-30T05:46:08.373Z,94494.28
2022-08-30T05:48:36.366Z,94502.97
2022-08-30T05:51:23.479Z,94495.06
2022-08-30T05:53:52.377Z,94498.72
2022-08-30T05:56:25.827Z,94502.94
2022-08-30T05:58:53.415Z,94493.53
2022-08-30T06:01:24.915Z,94501.31
2022-08-30T06:03:52.380Z,94497.28
2022-08-30T06:06:19.263Z,94503.63
2022-08-30T06:08:47.475Z,94503.06
2022-08-30T06:11:15.506Z,94499.50
2022-08-30T06:13:42.325Z,94505.31
2022-08-30T06:16:12.537Z,94501.56
2022-08-30T06:18:39.494Z,94494.03
2022-08-30T06:21:06.550Z,94501.00
2022-08-30T06:23:33.392Z,94503.22
2022-08-30T06:26:05.417Z,94505.03
2022-08-30T06:28:32.394Z,94503.94
2022-08-30T06:30:59.301Z,94506.22
2022-08-30T06:33:26.177Z,94504.47
2022-08-30T06:35:58.807Z,94506.69
2022-08-30T06:38:27.003Z,94512.22
2022-08-30T06:40:53.919Z,94503.81
2022-08-30T06:43:21.024Z,94505.72
2022-08-30T06:45:48.114Z,94497.81
2022-08-30T06:48:15.071Z,94502.81
2022-08-30T06:50:42.241Z,94496.16
2022-08-30T06:53:09.656Z,94501.81
2022-08-30T06:55:37.497Z,94503.78
2022-08-30T06:58:05.162Z,94488.66
2022-08-30T07:00:31.934Z,94496.28
2022-08-30T07:02:59.089Z,94495.59
2022-08-30T07:05:25.894Z,94502.88
2022-08-30T07:07:55.387Z,94495.53
2022-08-30T07:10:22.147Z,94498.97
2022-08-30T07:12:49.204Z,94508.22
2022-08-30T07:15:16.459Z,94511.63
2022-08-30T07:18:01.568Z,94516.03
2022-08-30T07:20:39.911Z,94513.78
2022-08-30T07:23:07.637Z,94521.50
2022-08-30T07:25:34.468Z,94525.66
2022-08-30T07:28:01.169Z,94520.38
2022-08-30T07:30:27.947Z,94518.31
2022-08-30T07:32:54.718Z,94517.09
2022-08-30T07:35:21.546Z,94514.00
2022-08-30T07:37:48.399Z,94527.19
2022-08-30T07:40:15.353Z,94525.31
2022-08-30T07:42:42.155Z,94522.63
2022-08-30T07:45:09.898Z,94527.97
2022-08-30T07:47:36.846Z,94524.63
2022-08-30T07:50:06.426Z,94525.72
2022-08-30T07:52:33.778Z,94531.31
2022-08-30T07:55:01.519Z,94533.09
2022-08-30T07:57:31.657Z,94531.63
2022-08-30T07:59:58.427Z,94534.84
2022-08-30T08:02:25.457Z,94531.78
2022-08-30T08:04:52.396Z,94533.16
2022-08-30T08:07:19.457Z,94526.72
2022-08-30T08:09:46.216Z,94533.63
2022-08-30T08:12:13.335Z,94529.75
2022-08-30T08:14:41.511Z,94515.19
2022-08-30T08:17:08.294Z,94522.53
2022-08-30T08:19:35.064Z,94519.91
2022-08-30T08:22:20.593Z,94513.38
2022-08-30T08:24:47.796Z,94518.38
2022-08-30T08:27:14.495Z,94520.38
2022-08-30T08:29:41.267Z,94526.66
2022-08-30T08:32:08.207Z,94512.75
2022-08-30T08:34:36.074Z,94513.38
2022-08-30T08:37:03.087Z,94511.94
2022-08-30T08:39:29.874Z,94508.19
2022-08-30T08:42:17.035Z,94504.63
2022-08-30T08:45:00.459Z,94510.28
2022-08-30T08:47:39.434Z,94511.03
2022-08-30T08:50:12.544Z,94512.22
2022-08-30T08:53:45.402Z,94507.78
2022-08-30T08:56:15.927Z,94510.19
2022-08-30T08:58:44.016Z,94503.16
2022-08-30T09:01:13.406Z,94507.16
2022-08-30T09:03:40.517Z,94496.19
2022-08-30T09:06:45.245Z,94491.00
2022-08-30T09:09:13.337Z,94484.03
2022-08-30T09:11:40.996Z,94482.03
2022-08-30T09:14:15.390Z,94477.53
2022-08-30T09:16:47.177Z,94489.56
2022-08-30T09:19:38.816Z,94484.78
2022-08-30T09:22:42.756Z,94477.81
2022-08-30T09:25:13.457Z,94473.84
2022-08-30T09:27:42.524Z,94462.81
2022-08-30T09:30:14.454Z,94462.78
2022-08-30T09:32:54.996Z,94465.94
2022-08-30T09:35:34.836Z,94456.16
2022-08-30T09:38:10.336Z,94458.53
2022-08-30T09:40:42.726Z,94457.47
2022-08-30T09:43:16.707Z,94450.88
2022-08-30T09:45:47.521Z,94454.19
2022-08-30T09:48:40.996Z,94453.19
2022-08-30T09:51:10.957Z,94446.94
2022-08-30T09:54:16.752Z,94429.91
2022-08-30T09:56:55.312Z,94444.72
2022-08-30T09:59:49.429Z,94434.00
2022-08-30T10:02:33.007Z,94425.38
2022-08-30T10:05:27.107Z,94419.84
2022-08-30T10:08:15.094Z,94418.38
2022-08-30T10:11:04.397Z,94422.41
2022-08-30T10:13:44.946Z,94419.38
2022-08-30T10:16:19.605Z,94425.28
2022-08-30T10:19:04.275Z,94415.84
2022-08-30T10:21:41.086Z,94410.38
2022-08-30T10:24:14.226Z,94410.16
2022-08-30T10:27:07.817Z,94397.41
2022-08-30T10:29:40.635Z,94402.16
2022-08-30T10:32:24.924Z,94396.97
2022-08-30T10:34:56.734Z,94396.16
2022-08-30T10:37:29.196Z,94390.47
2022-08-30T10:40:22.136Z,94385.53
2022-08-30T10:42:49.847Z,94395.72
2022-08-30T10:45:17.704Z,94392.31
2022-08-30T10:48:00.830Z,94387.06
2022-08-30T10:50:41.267Z,94391.00
2022-08-30T10:53:22.476Z,94386.16
2022-08-30T10:55:52.524Z,94396.28
2022-08-30T10:58:19.666Z,94388.34
2022-08-30T11:01:14.923Z,94386.59
2022-08-30T11:04:09.297Z,94384.28
2022-08-30T11:06:47.796Z,94383.41
2022-08-30T11:09:44.777Z,94369.84
2022-08-30T11:12:37.402Z,94375.81
2022-08-30T11:15:25.203Z,94371.38
2022-08-30T11:18:10.159Z,94362.28
2022-08-30T11:20:47.053Z,94363.06
2022-08-30T11:23:32.669Z,94359.09
2022-08-30T11:26:08.967Z,94362.44
2022-08-30T11:28:46.381Z,94356.03
2022-08-30T11:31:22.633Z,94360.22
2022-08-30T11:33:59.593Z,94365.63
2022-08-30T11:36:37.766Z,94351.22
2022-08-30T11:39:06.174Z,94352.53
2022-08-30T11:41:42.095Z,94353.00
2022-08-30T11:44:21.446Z,94345.16
2022-08-30T11:46:49.905Z,94345.31
2022-08-30T11:49:19.587Z,94345.81
2022-08-30T11:52:26.252Z,94338.88
2022-08-30T11:55:23.184Z,94326.25
2022-08-30T11:57:52.526Z,94324.03
2022-08-30T12:00:34.947Z,94327.50
2022-08-30T12:03:05.627Z,94329.38
2022-08-30T12:05:38.853Z,94324.13
2022-08-30T12:08:20.675Z,94315.69
2022-08-30T12:10:54.665Z,94323.22
2022-08-30T12:13:37.058Z,94318.97
2022-08-30T12:16:12.610Z,94320.31
2022-08-30T12:19:00.919Z,94314.66
2022-08-30T12:21:43.646Z,94308.16
2022-08-30T12:24:21.495Z,94311.53
2022-08-30T12:26:51.453Z,94304.13
2022-08-30T12:29:29.978Z,94302.25
2022-08-30T12:31:59.437Z,94304.59
2022-08-30T12:34:30.846Z,94300.53
2022-08-30T12:37:04.853Z,94294.97
2022-08-30T12:39:43.696Z,94295.97
2022-08-30T12:42:26.892Z,94292.34
2022-08-30T12:44:57.988Z,94292.59
2022-08-30T12:47:45.968Z,94289.09
2022-08-30T12:50:22.209Z,94286.31
2022-08-30T12:53:00.876Z,94284.28
2022-08-30T12:55:35.899Z,94273.50
2022-08-30T12:58:11.306Z,94276.69
2022-08-30T13:00:39.730Z,94273.25
2022-08-30T13:03:26.140Z,94273.91
2022-08-30T13:05:57.610Z,94267.41
2022-08-30T13:08:37.345Z,94272.28
2022-08-30T13:11:08.507Z,94264.84
2022-08-30T13:13:51.910Z,94264.09
2022-08-30T13:16:20.725Z,94268.13
2022-08-30T13:18:49.736Z,94265.94
2022-08-30T13:21:21.875Z,94251.31
2022-08-30T13:23:50.618Z,94264.66
2022-08-30T13:26:21.090Z,94260.84
2022-08-30T13:28:52.980Z,94250.25
2022-08-30T13:31:20.501Z,94247.75
2022-08-30T13:33:53.165Z,94260.97
2022-08-30T13:36:23.053Z,94256.81
2022-08-30T13:38:51.875Z,94250.06
2022-08-30T13:41:20.904Z,94252.41
2022-08-30T13:46:35.870Z,94235.94
2022-08-30T13:49:06.522Z,94244.25
2022-08-30T13:51:33.876Z,94236.81
2022-08-30T13:54:02.652Z,94231.47
2022-08-30T13:56:32.163Z,94230.28
2022-08-30T13:58:59.666Z,94234.88
2022-08-30T14:01:30.016Z,94230.16
2022-08-30T14:04:16.752Z,94223.91
2022-08-30T14:09:30.952Z,94224.16
2022-08-30T14:11:57.736Z,94225.50
2022-08-30T14:14:41.866Z,94209.91
2022-08-30T14:17:09.907Z,94205.56
2022-08-30T14:19:36.706Z,94215.41
2022-08-30T14:22:03.623Z,94210.25
2022-08-30T14:24:30.445Z,94200.72
2022-08-30T14:26:57.231Z,94203.97
2022-08-30T14:29:30.006Z,94205.38
2022-08-30T14:31:58.575Z,94208.84
2022-08-30T14:34:27.186Z,94201.69
2022-08-30T14:36:54.167Z,94198.72
2022-08-30T14:39:21.746Z,94196.78
2022-08-30T14:41:51.268Z,94195.72
2022-08-30T14:44:19.416Z,94195.13
2022-08-30T14:46:46.606Z,94187.78
2022-08-30T14:49:14.606Z,94191.56
2022-08-30T14:51:42.417Z,94194.84
2022-08-30T14:54:10.164Z,94194.72
2022-08-30T14:56:38.115Z,94198.63
2022-08-30T14:59:05.691Z,94200.69
2022-08-30T15:01:32.696Z,94203.50
2022-08-30T15:04:03.983Z,94197.81
2022-08-30T15:06:34.904Z,94202.31
2022-08-30T15:09:05.268Z,94199.81
2022-08-30T15:11:33.272Z,94202.84
2022-08-30T15:14:00.468Z,94197.84
2022-08-30T15:16:33.068Z,94200.03
2022-08-30T15:19:00.642Z,94198.66
2022-08-30T15:21:35.916Z,94195.50
2022-08-30T15:24:04.256Z,94192.22
2022-08-30T15:26:31.525Z,94196.94
2022-08-30T15:28:59.096Z,94190.28
2022-08-30T15:31:28.560Z,94189.63
2022-08-30T15:33:55.657Z,94184.19
2022-08-30T15:36:24.374Z,94184.19
2022-08-30T15:38:53.976Z,94185.09
2022-08-30T15:41:20.957Z,94184.34
2022-08-30T15:43:49.336Z,94184.50
2022-08-30T15:46:22.687Z,94183.34
2022-08-30T15:48:52.055Z,94176.28
2022-08-30T15:51:19.286Z,94180.63
2022-08-30T15:53:46.716Z,94183.41
2022-08-30T15:56:14.184Z,94180.56
2022-08-30T15:58:41.234Z,94187.22
2022-08-30T16:01:08.267Z,94189.88
2022-08-30T16:03:36.074Z,94187.31
2022-08-30T16:06:04.863Z,94180.34
2022-08-30T16:08:31.595Z,94183.88
2022-08-30T16:10:58.357Z,94182.28
2022-08-30T16:13:25.243Z,94185.22
2022-08-30T16:15:52.152Z,94186.72
2022-08-30T16:18:19.096Z,94177.44
2022-08-30T16:20:45.937Z,94183.72
2022-08-30T16:23:12.738Z,94175.50
2022-08-30T16:25:41.235Z,94179.06
2022-08-30T16:28:09.509Z,94177.41
2022-08-30T16:30:36.880Z,94156.13
2022-08-30T16:33:03.828Z,94162.00
2022-08-30T16:35:30.634Z,94165.75
2022-08-30T16:37:57.746Z,94166.34
2022-08-30T16:40:24.572Z,94165.00
2022-08-30T16:42:51.898Z,94160.88
2022-08-30T16:45:19.260Z,94160.41
2022-08-30T16:47:46.285Z,94160.69
2022-08-30T16:50:13.245Z,94163.59
2022-08-30T16:52:43.953Z,94159.31
2022-08-30T16:55:11.031Z,94155.16
2022-08-30T16:57:38.636Z,94154.16
2022-08-30T17:00:13.291Z,94159.06
2022-08-30T17:02:42.635Z,94156.59
2022-08-30T17:05:21.746Z,94157.72
2022-08-30T17:07:48.535Z,94169.91
2022-08-30T17:10:15.495Z,94156.75
2022-08-30T17:12:50.020Z,94166.47
2022-08-30T17:15:19.986Z,94169.66
2022-08-30T17:17:47.768Z,94166.69
2022-08-30T17:20:15.556Z,94177.91
2022-08-30T17:22:42.499Z,94179.28
2022-08-30T17:25:13.317Z,94176.03
2022-08-30T17:27:40.302Z,94178.66
2022-08-30T17:30:08.796Z,94174.78
2022-08-30T17:32:35.667Z,94179.16
2022-08-30T17:35:02.737Z,94178.28
2022-08-30T17:37:33.460Z,94186.78
2022-08-30T17:40:00.746Z,94185.13
2022-08-30T17:42:29.735Z,94193.19
2022-08-30T17:44:58.029Z,94179.91
2022-08-30T17:47:28.137Z,94181.75
2022-08-30T17:49:55.652Z,94194.91
2022-08-30T17:52:22.417Z,94198.66
2022-08-30T17:54:50.578Z,94201.06
2022-08-30T17:57:17.980Z,94193.44
2022-08-30T17:59:45.719Z,94202.09
2022-08-30T18:02:13.787Z,94198.22
2022-08-30T18:04:42.008Z,94192.19
2022-08-30T18:07:11.993Z,94195.25
2022-08-30T18:09:39.822Z,94205.06
2022-08-30T18:12:07.407Z,94207.69
2022-08-30T18:14:34.207Z,94207.53
2022-08-30T18:17:02.796Z,94213.66
2022-08-30T18:19:30.458Z,94213.44
2022-08-30T18:21:57.150Z,94213.84
2022-08-30T18:24:24.594Z,94221.09
2022-08-30T18:26:51.667Z,94232.94
2022-08-30T18:29:29.384Z,94232.75
2022-08-30T18:32:02.132Z,94235.66
2022-08-30T18:34:29.200Z,94234.38
2022-08-30T18:36:56.301Z,94235.19
2022-08-30T18:39:23.223Z,94245.31
2022-08-30T18:41:51.085Z,94232.97
2022-08-30T18:44:28.262Z,94231.19
2022-08-30T18:46:57.585Z,94239.16
2022-08-30T18:49:27.966Z,94235.44
2022-08-30T18:51:54.748Z,94230.50
2022-08-30T18:54:21.822Z,94232.16
2022-08-30T18:56:49.678Z,94227.19
2022-08-30T18:59:17.463Z,94227.25
2022-08-30T19:01:46.877Z,94235.22
2022-08-30T19:04:29.658Z,94227.06
2022-08-30T19:07:03.377Z,94227.59
2022-08-30T19:09:30.591Z,94232.88
2022-08-30T19:11:57.340Z,94228.69
2022-08-30T19:14:24.273Z,94228.16
2022-08-30T19:16:56.372Z,94234.69
2022-08-30T19:19:23.705Z,94228.09
2022-08-30T19:21:50.486Z,94234.44
2022-08-30T19:24:17.915Z,94229.19
2022-08-30T19:26:46.856Z,94233.91
2022-08-30T19:29:14.473Z,94238.41
2022-08-30T19:31:42.300Z,94230.28
2022-08-30T19:34:09.168Z,94231.84
2022-08-30T19:36:36.273Z,94233.44
2022-08-30T19:39:04.066Z,94231.34
2022-08-30T19:41:31.026Z,94233.44
2022-08-30T19:43:58.758Z,94233.44
2022-08-30T19:46:30.008Z,94240.28
2022-08-30T19:49:01.193Z,94232.94
2022-08-30T19:51:28.268Z,94240.06
2022-08-30T19:53:56.445Z,94255.03
2022-08-30T19:56:26.636Z,94247.94
2022-08-30T19:58:54.054Z,94243.97
2022-08-30T20:01:32.719Z,94253.72
2022-08-30T20:04:02.163Z,94246.59
2022-08-30T20:06:30.041Z,94254.53
2022-08-30T20:08:58.244Z,94254.53
2022-08-30T20:11:28.456Z,94255.06
2022-08-30T20:13:56.128Z,94256.09
2022-08-30T20:16:35.546Z,94255.56
2022-08-30T20:19:06.263Z,94251.38
2022-08-30T20:21:33.291Z,94252.16
2022-08-30T20:24:01.028Z,94250.84
2022-08-30T20:26:33.879Z,94246.38
2022-08-30T20:29:02.780Z,94245.84
2022-08-30T20:31:29.631Z,94245.06
2022-08-30T20:33:56.407Z,94243.47
2022-08-30T20:36:23.106Z,94236.38
2022-08-30T20:38:50.225Z,94239.53
2022-08-30T20:41:18.422Z,94236.13
2022-08-30T20:43:45.832Z,94234.53
2022-08-30T20:46:16.014Z,94232.97
2022-08-30T20:48:43.596Z,94235.06
2022-08-30T20:51:12.734Z,94237.19
2022-08-30T20:53:39.450Z,94229.28
2022-08-30T20:56:11.878Z,94236.13
2022-08-30T20:58:38.550Z,94231.13
2022-08-30T21:01:08.292Z,94237.69
2022-08-30T21:03:34.956Z,94235.59
2022-08-30T21:06:01.760Z,94240.59
2022-08-30T21:08:28.462Z,94240.06
2022-08-30T21:10:55.279Z,94237.91
2022-08-30T21:13:22.476Z,94240.75
2022-08-30T21:15:54.791Z,94238.13
2022-08-30T21:18:22.035Z,94230.78
2022-08-30T21:20:48.712Z,94228.16
2022-08-30T21:23:15.351Z,94224.75
2022-08-30T21:25:42.962Z,94227.63
2022-08-30T21:28:10.134Z,94227.38
2022-08-30T21:30:37.594Z,94225.03
2022-08-30T21:33:05.959Z,94227.91
2022-08-30T21:35:51.585Z,94225.25
2022-08-30T21:38:19.095Z,94225.00
2022-08-30T21:40:46.963Z,94223.84
2022-08-30T21:43:13.825Z,94217.53
2022-08-30T21:45:42.130Z,94215.41
2022-08-30T21:48:10.306Z,94213.59
2022-08-30T21:50:43.876Z,94217.75
2022-08-30T21:53:10.763Z,94210.91
2022-08-30T21:55:38.671Z,94216.88
2022-08-30T21:58:05.446Z,94215.97
2022-08-30T22:00:33.673Z,94224.25
2022-08-30T22:03:00.555Z,94218.41
2022-08-30T22:05:27.327Z,94218.97
2022-08-30T22:07:54.010Z,94222.13
2022-08-30T22:10:21.242Z,94212.97
2022-08-30T22:12:48.011Z,94219.41
2022-08-30T22:15:14.817Z,94230.94
2022-08-30T22:17:43.167Z,94228.03
2022-08-30T22:20:10.333Z,94226.69
2022-08-30T22:22:37.980Z,94217.78
2022-08-30T22:25:05.039Z,94225.56
2022-08-30T22:27:31.725Z,94218.50
2022-08-30T22:29:58.389Z,94211.47
2022-08-30T22:32:25.036Z,94215.13
2022-08-30T22:34:51.701Z,94213.16
2022-08-30T22:37:18.466Z,94218.91
2022-08-30T22:39:45.127Z,94212.97
2022-08-30T22:42:11.803Z,94215.06
2022-08-30T22:44:38.476Z,94206.97
2022-08-30T22:47:05.250Z,94199.38
2022-08-30T22:49:32.017Z,94201.03
2022-08-30T22:51:58.675Z,94201.47
2022-08-30T22:54:25.489Z,94198.19
2022-08-30T22:56:53.428Z,94203.72
2022-08-30T22:59:20.099Z,94209.75
2022-08-30T23:01:49.275Z,94206.03
2022-08-30T23:04:16.235Z,94197.34
2022-08-30T23:06:49.943Z,94201.94
2022-08-30T23:09:17.294Z,94199.72
2022-08-30T23:11:43.968Z,94198.13
2022-08-30T23:14:10.851Z,94190.16
2022-08-30T23:16:38.036Z,94189.13
2022-08-30T23:19:05.013Z,94204.31
2022-08-30T23:21:31.777Z,94203.41
2022-08-30T23:24:18.115Z,94195.09
2022-08-30T23:27:04.111Z,94202.94
2022-08-30T23:29:50.331Z,94197.44
2022-08-30T23:32:35.521Z,94193.47
2022-08-30T23:35:29.534Z,94189.28
2022-08-30T23:38:19.056Z,94186.88
2022-08-30T23:41:04.165Z,94192.16
2022-08-30T23:43:49.595Z,94191.53
2022-08-30T23:46:34.816Z,94184.72
2022-08-30T23:49:20.329Z,94185.38
2022-08-30T23:52:06.095Z,94186.13
2022-08-30T23:54:51.515Z,94193.63
2022-08-30T23:57:42.256Z,94194.44
